SCAR METAR and TAF weather

Enter ICAO airport designator
Station Type Date Time Source
SCAR METAR 2019/08/24 18:00 UTC NOAA

SCAR 241800Z 22010KT 180V250 9999 SCT033 18/11 Q1015


Station Type Date Time Source
SCAR Decoded METAR 2019/08/24 18:00 UTC NOAA

Station name not available
Aug 24, 2019 - 02:00 PM EDT / 2019.08.24 1800 UTC
Wind: from the SW (220 degrees) at 12 MPH (10 KT) (direction variable):0
Visibility: greater than 7 mile(s):0
Sky conditions: partly cloudy
Temperature: 64 F (18 C)
Dew Point: 51 F (11 C)
Relative Humidity: 63%
Pressure (altimeter): 29.97 in. Hg (1015 hPa)
ob: SCAR 241800Z 22010KT 180V250 9999 SCT033 18/11 Q1015
cycle: 18

Station Type Date Time Source
SCAR TAF 2019/08/24 18:01 UTC NOAA

TAF SCAR 241630Z 2418/2518 22010KT CAVOK TX18/2418Z TN15/2510Z
BECMG 2422/2500 19004KT OVC020
BECMG 2506/2508 09004KT
BECMG 2515/2517 22010KT
BECMG 2516/2518 CAVOK

Example: see airport list